sensor_id;sensor_type;location;lat;lon;timestamp;temperature;humidity
29539;DHT22;16482;51.046;4.498;2022-10-23T00:01:28;23.30;51.80
29539;DHT22;16482;51.046;4.498;2022-10-23T00:03:57;23.30;51.70
29539;DHT22;16482;51.046;4.498;2022-10-23T00:06:24;23.30;51.70
29539;DHT22;16482;51.046;4.498;2022-10-23T00:08:50;23.30;51.80
29539;DHT22;16482;51.046;4.498;2022-10-23T00:11:18;23.30;51.80
29539;DHT22;16482;51.046;4.498;2022-10-23T00:13:46;23.30;51.70
29539;DHT22;16482;51.046;4.498;2022-10-23T00:16:12;23.30;51.70
29539;DHT22;16482;51.046;4.498;2022-10-23T00:18:39;23.30;51.70
29539;DHT22;16482;51.046;4.498;2022-10-23T00:21:06;23.30;51.70
29539;DHT22;16482;51.046;4.498;2022-10-23T00:23:33;23.30;51.60
29539;DHT22;16482;51.046;4.498;2022-10-23T00:25:59;23.30;51.70
29539;DHT22;16482;51.046;4.498;2022-10-23T00:28:25;23.30;51.70
29539;DHT22;16482;51.046;4.498;2022-10-23T00:30:51;23.30;51.70
29539;DHT22;16482;51.046;4.498;2022-10-23T00:33:17;23.30;51.70
29539;DHT22;16482;51.046;4.498;2022-10-23T00:35:43;23.20;51.70
29539;DHT22;16482;51.046;4.498;2022-10-23T00:38:10;23.30;51.70
29539;DHT22;16482;51.046;4.498;2022-10-23T00:40:38;23.30;51.70
29539;DHT22;16482;51.046;4.498;2022-10-23T00:43:21;23.20;51.60
29539;DHT22;16482;51.046;4.498;2022-10-23T00:45:47;23.30;51.70
29539;DHT22;16482;51.046;4.498;2022-10-23T00:48:13;23.30;51.70
29539;DHT22;16482;51.046;4.498;2022-10-23T00:50:40;23.20;51.60
29539;DHT22;16482;51.046;4.498;2022-10-23T00:53:07;23.20;51.60
29539;DHT22;16482;51.046;4.498;2022-10-23T00:55:35;23.20;51.60
29539;DHT22;16482;51.046;4.498;2022-10-23T00:58:03;23.20;51.60
29539;DHT22;16482;51.046;4.498;2022-10-23T01:00:48;23.20;51.60
29539;DHT22;16482;51.046;4.498;2022-10-23T01:03:16;23.30;51.60
29539;DHT22;16482;51.046;4.498;2022-10-23T01:11:28;23.20;51.60
29539;DHT22;16482;51.046;4.498;2022-10-23T01:28:03;23.20;51.60
29539;DHT22;16482;51.046;4.498;2022-10-23T01:30:29;23.20;51.60
29539;DHT22;16482;51.046;4.498;2022-10-23T01:35:44;23.20;51.60
29539;DHT22;16482;51.046;4.498;2022-10-23T01:38:12;23.20;51.60
29539;DHT22;16482;51.046;4.498;2022-10-23T01:43:31;23.20;51.60
29539;DHT22;16482;51.046;4.498;2022-10-23T01:46:06;23.20;51.60
29539;DHT22;16482;51.046;4.498;2022-10-23T01:48:34;23.20;51.60
29539;DHT22;16482;51.046;4.498;2022-10-23T01:51:04;23.20;51.60
29539;DHT22;16482;51.046;4.498;2022-10-23T01:53:34;23.20;51.60
29539;DHT22;16482;51.046;4.498;2022-10-23T01:56:05;23.20;51.60
29539;DHT22;16482;51.046;4.498;2022-10-23T01:58:34;23.20;51.60
29539;DHT22;16482;51.046;4.498;2022-10-23T02:01:02;23.20;51.60
29539;DHT22;16482;51.046;4.498;2022-10-23T02:03:30;23.20;51.50
29539;DHT22;16482;51.046;4.498;2022-10-23T02:05:57;23.20;51.50
29539;DHT22;16482;51.046;4.498;2022-10-23T02:08:24;23.20;51.50
29539;DHT22;16482;51.046;4.498;2022-10-23T02:11:08;23.20;51.50
29539;DHT22;16482;51.046;4.498;2022-10-23T02:16:50;23.20;51.50
29539;DHT22;16482;51.046;4.498;2022-10-23T02:21:50;23.20;51.50
29539;DHT22;16482;51.046;4.498;2022-10-23T02:24:25;23.10;51.50
29539;DHT22;16482;51.046;4.498;2022-10-23T02:27:00;23.20;51.50
29539;DHT22;16482;51.046;4.498;2022-10-23T02:29:31;23.20;51.50
29539;DHT22;16482;51.046;4.498;2022-10-23T02:32:00;23.20;51.50
29539;DHT22;16482;51.046;4.498;2022-10-23T02:34:26;23.10;51.50
29539;DHT22;16482;51.046;4.498;2022-10-23T02:36:52;23.20;51.50
29539;DHT22;16482;51.046;4.498;2022-10-23T02:39:19;23.20;51.50
29539;DHT22;16482;51.046;4.498;2022-10-23T02:41:56;23.10;51.50
29539;DHT22;16482;51.046;4.498;2022-10-23T02:47:32;23.10;51.50
29539;DHT22;16482;51.046;4.498;2022-10-23T02:58:50;23.10;51.50
29539;DHT22;16482;51.046;4.498;2022-10-23T03:01:26;23.20;51.60
29539;DHT22;16482;51.046;4.498;2022-10-23T03:03:58;23.10;51.60
29539;DHT22;16482;51.046;4.498;2022-10-23T03:06:25;23.10;52.20
29539;DHT22;16482;51.046;4.498;2022-10-23T03:08:58;23.10;51.50
29539;DHT22;16482;51.046;4.498;2022-10-23T03:11:25;23.10;51.50
29539;DHT22;16482;51.046;4.498;2022-10-23T03:13:51;23.10;51.50
29539;DHT22;16482;51.046;4.498;2022-10-23T03:16:17;23.10;51.50
29539;DHT22;16482;51.046;4.498;2022-10-23T03:18:43;23.10;51.50
29539;DHT22;16482;51.046;4.498;2022-10-23T03:21:09;23.10;51.50
29539;DHT22;16482;51.046;4.498;2022-10-23T03:23:35;23.10;51.50
29539;DHT22;16482;51.046;4.498;2022-10-23T03:26:01;23.10;51.40
29539;DHT22;16482;51.046;4.498;2022-10-23T03:28:26;23.10;51.50
29539;DHT22;16482;51.046;4.498;2022-10-23T03:30:52;23.10;51.50
29539;DHT22;16482;51.046;4.498;2022-10-23T03:33:18;23.10;51.50
29539;DHT22;16482;51.046;4.498;2022-10-23T03:35:44;23.10;51.40
29539;DHT22;16482;51.046;4.498;2022-10-23T03:38:10;23.10;51.50
29539;DHT22;16482;51.046;4.498;2022-10-23T03:40:36;23.10;51.40
29539;DHT22;16482;51.046;4.498;2022-10-23T03:43:02;23.20;51.40
29539;DHT22;16482;51.046;4.498;2022-10-23T03:45:27;23.10;51.40
29539;DHT22;16482;51.046;4.498;2022-10-23T03:47:53;23.20;51.40
29539;DHT22;16482;51.046;4.498;2022-10-23T03:50:19;23.10;51.40
29539;DHT22;16482;51.046;4.498;2022-10-23T03:52:45;23.10;51.40
29539;DHT22;16482;51.046;4.498;2022-10-23T03:55:11;23.10;51.40
29539;DHT22;16482;51.046;4.498;2022-10-23T03:57:37;23.10;51.40
29539;DHT22;16482;51.046;4.498;2022-10-23T04:00:05;23.10;52.00
29539;DHT22;16482;51.046;4.498;2022-10-23T04:02:31;23.10;51.40
29539;DHT22;16482;51.046;4.498;2022-10-23T04:04:57;23.10;51.30
29539;DHT22;16482;51.046;4.498;2022-10-23T04:07:23;23.10;51.30
29539;DHT22;16482;51.046;4.498;2022-10-23T04:09:49;23.10;51.30
29539;DHT22;16482;51.046;4.498;2022-10-23T04:12:15;23.20;51.40
29539;DHT22;16482;51.046;4.498;2022-10-23T04:14:40;23.10;51.30
29539;DHT22;16482;51.046;4.498;2022-10-23T04:17:06;23.10;51.40
29539;DHT22;16482;51.046;4.498;2022-10-23T04:19:32;23.10;51.40
29539;DHT22;16482;51.046;4.498;2022-10-23T04:21:58;23.10;51.30
29539;DHT22;16482;51.046;4.498;2022-10-23T04:24:24;23.10;51.40
29539;DHT22;16482;51.046;4.498;2022-10-23T04:26:50;23.10;51.30
29539;DHT22;16482;51.046;4.498;2022-10-23T04:29:16;23.10;51.30
29539;DHT22;16482;51.046;4.498;2022-10-23T04:31:42;23.10;51.30
29539;DHT22;16482;51.046;4.498;2022-10-23T04:34:08;23.10;51.30
29539;DHT22;16482;51.046;4.498;2022-10-23T04:36:33;23.10;51.30
29539;DHT22;16482;51.046;4.498;2022-10-23T04:38:59;23.10;51.30
29539;DHT22;16482;51.046;4.498;2022-10-23T04:41:26;23.10;51.30
29539;DHT22;16482;51.046;4.498;2022-10-23T04:43:52;23.10;51.30
29539;DHT22;16482;51.046;4.498;2022-10-23T04:46:18;23.10;51.30
29539;DHT22;16482;51.046;4.498;2022-10-23T04:48:43;23.10;51.30
29539;DHT22;16482;51.046;4.498;2022-10-23T04:51:09;23.10;51.30
29539;DHT22;16482;51.046;4.498;2022-10-23T04:53:35;23.10;51.30
29539;DHT22;16482;51.046;4.498;2022-10-23T04:56:03;23.10;51.20
29539;DHT22;16482;51.046;4.498;2022-10-23T04:58:29;23.10;51.20
29539;DHT22;16482;51.046;4.498;2022-10-23T05:00:55;23.10;51.80
29539;DHT22;16482;51.046;4.498;2022-10-23T05:03:22;23.10;51.20
29539;DHT22;16482;51.046;4.498;2022-10-23T05:05:52;23.10;51.20
29539;DHT22;16482;51.046;4.498;2022-10-23T05:08:18;23.10;51.20
29539;DHT22;16482;51.046;4.498;2022-10-23T05:10:44;23.10;51.20
29539;DHT22;16482;51.046;4.498;2022-10-23T05:13:11;23.10;51.20
29539;DHT22;16482;51.046;4.498;2022-10-23T05:15:37;23.10;51.30
29539;DHT22;16482;51.046;4.498;2022-10-23T05:20:54;23.10;51.20
29539;DHT22;16482;51.046;4.498;2022-10-23T05:23:22;23.10;51.20
29539;DHT22;16482;51.046;4.498;2022-10-23T05:25:48;23.10;51.20
29539;DHT22;16482;51.046;4.498;2022-10-23T05:28:14;23.10;51.30
29539;DHT22;16482;51.046;4.498;2022-10-23T05:30:41;23.10;51.20
29539;DHT22;16482;51.046;4.498;2022-10-23T05:33:08;23.10;51.20
29539;DHT22;16482;51.046;4.498;2022-10-23T05:35:35;23.10;51.20
29539;DHT22;16482;51.046;4.498;2022-10-23T05:38:02;23.10;51.20
29539;DHT22;16482;51.046;4.498;2022-10-23T05:40:28;23.10;51.20
29539;DHT22;16482;51.046;4.498;2022-10-23T05:42:54;23.10;51.20
29539;DHT22;16482;51.046;4.498;2022-10-23T05:45:20;23.10;51.30
29539;DHT22;16482;51.046;4.498;2022-10-23T05:47:46;23.10;51.40
29539;DHT22;16482;51.046;4.498;2022-10-23T05:50:13;23.10;51.40
29539;DHT22;16482;51.046;4.498;2022-10-23T05:52:39;23.20;51.40
29539;DHT22;16482;51.046;4.498;2022-10-23T05:55:05;23.20;51.40
29539;DHT22;16482;51.046;4.498;2022-10-23T05:57:32;23.20;51.30
29539;DHT22;16482;51.046;4.498;2022-10-23T05:59:58;23.20;51.20
29539;DHT22;16482;51.046;4.498;2022-10-23T06:02:24;23.30;51.30
29539;DHT22;16482;51.046;4.498;2022-10-23T06:04:50;23.30;51.30
29539;DHT22;16482;51.046;4.498;2022-10-23T06:07:16;23.30;51.30
29539;DHT22;16482;51.046;4.498;2022-10-23T06:09:42;23.30;51.30
29539;DHT22;16482;51.046;4.498;2022-10-23T06:12:08;23.40;51.30
29539;DHT22;16482;51.046;4.498;2022-10-23T06:14:33;23.40;51.40
29539;DHT22;16482;51.046;4.498;2022-10-23T06:16:59;23.50;51.40
29539;DHT22;16482;51.046;4.498;2022-10-23T06:19:25;23.50;51.40
29539;DHT22;16482;51.046;4.498;2022-10-23T06:21:51;23.50;51.30
29539;DHT22;16482;51.046;4.498;2022-10-23T06:24:17;23.50;51.20
29539;DHT22;16482;51.046;4.498;2022-10-23T06:26:43;23.60;51.20
29539;DHT22;16482;51.046;4.498;2022-10-23T06:29:09;23.60;51.10
29539;DHT22;16482;51.046;4.498;2022-10-23T06:31:35;23.60;51.10
29539;DHT22;16482;51.046;4.498;2022-10-23T06:34:02;23.60;51.00
29539;DHT22;16482;51.046;4.498;2022-10-23T06:36:28;23.70;51.00
29539;DHT22;16482;51.046;4.498;2022-10-23T06:38:54;23.70;50.90
29539;DHT22;16482;51.046;4.498;2022-10-23T06:41:21;23.70;50.90
29539;DHT22;16482;51.046;4.498;2022-10-23T06:43:48;23.70;50.80
29539;DHT22;16482;51.046;4.498;2022-10-23T06:46:14;23.70;50.80
29539;DHT22;16482;51.046;4.498;2022-10-23T06:48:41;23.80;50.90
29539;DHT22;16482;51.046;4.498;2022-10-23T06:51:09;23.80;50.70
29539;DHT22;16482;51.046;4.498;2022-10-23T06:53:35;23.80;50.60
29539;DHT22;16482;51.046;4.498;2022-10-23T06:56:03;23.80;50.60
29539;DHT22;16482;51.046;4.498;2022-10-23T06:58:29;23.80;50.60
29539;DHT22;16482;51.046;4.498;2022-10-23T07:00:58;23.80;50.60
29539;DHT22;16482;51.046;4.498;2022-10-23T07:03:24;23.90;50.60
29539;DHT22;16482;51.046;4.498;2022-10-23T07:05:50;23.90;50.50
29539;DHT22;16482;51.046;4.498;2022-10-23T07:08:15;23.90;50.40
29539;DHT22;16482;51.046;4.498;2022-10-23T07:10:41;23.90;50.40
29539;DHT22;16482;51.046;4.498;2022-10-23T07:13:08;23.90;50.40
29539;DHT22;16482;51.046;4.498;2022-10-23T07:15:34;23.90;50.30
29539;DHT22;16482;51.046;4.498;2022-10-23T07:18:01;23.90;50.30
29539;DHT22;16482;51.046;4.498;2022-10-23T07:20:27;24.00;50.30
29539;DHT22;16482;51.046;4.498;2022-10-23T07:22:54;24.00;50.30
29539;DHT22;16482;51.046;4.498;2022-10-23T07:25:21;23.90;50.30
29539;DHT22;16482;51.046;4.498;2022-10-23T07:27:48;24.00;50.30
29539;DHT22;16482;51.046;4.498;2022-10-23T07:30:14;24.00;50.30
29539;DHT22;16482;51.046;4.498;2022-10-23T07:32:41;23.90;50.30
29539;DHT22;16482;51.046;4.498;2022-10-23T07:35:08;24.00;50.30
29539;DHT22;16482;51.046;4.498;2022-10-23T07:37:34;24.00;50.30
29539;DHT22;16482;51.046;4.498;2022-10-23T07:40:00;24.00;50.40
29539;DHT22;16482;51.046;4.498;2022-10-23T07:42:26;24.00;50.30
29539;DHT22;16482;51.046;4.498;2022-10-23T07:44:52;24.00;50.30
29539;DHT22;16482;51.046;4.498;2022-10-23T07:47:18;24.00;50.30
29539;DHT22;16482;51.046;4.498;2022-10-23T07:49:44;24.00;50.40
29539;DHT22;16482;51.046;4.498;2022-10-23T07:52:09;24.00;50.40
29539;DHT22;16482;51.046;4.498;2022-10-23T07:54:35;24.00;50.40
29539;DHT22;16482;51.046;4.498;2022-10-23T07:57:01;24.00;50.50
29539;DHT22;16482;51.046;4.498;2022-10-23T07:59:27;24.00;50.50
29539;DHT22;16482;51.046;4.498;2022-10-23T08:01:53;24.00;50.50
29539;DHT22;16482;51.046;4.498;2022-10-23T08:04:21;24.00;50.50
29539;DHT22;16482;51.046;4.498;2022-10-23T08:06:47;24.00;50.50
29539;DHT22;16482;51.046;4.498;2022-10-23T08:09:13;24.00;50.60
29539;DHT22;16482;51.046;4.498;2022-10-23T08:11:39;24.00;50.50
29539;DHT22;16482;51.046;4.498;2022-10-23T08:14:05;24.00;50.60
29539;DHT22;16482;51.046;4.498;2022-10-23T08:16:34;24.00;50.60
29539;DHT22;16482;51.046;4.498;2022-10-23T08:19:00;24.00;50.50
29539;DHT22;16482;51.046;4.498;2022-10-23T08:21:27;24.00;50.60
29539;DHT22;16482;51.046;4.498;2022-10-23T08:23:57;24.00;50.60
29539;DHT22;16482;51.046;4.498;2022-10-23T08:26:24;24.00;50.60
29539;DHT22;16482;51.046;4.498;2022-10-23T08:28:51;24.00;51.20
29539;DHT22;16482;51.046;4.498;2022-10-23T08:31:19;24.00;50.70
29539;DHT22;16482;51.046;4.498;2022-10-23T08:33:46;24.00;50.70
29539;DHT22;16482;51.046;4.498;2022-10-23T08:36:23;24.00;50.70
29539;DHT22;16482;51.046;4.498;2022-10-23T08:38:51;24.00;50.70
29539;DHT22;16482;51.046;4.498;2022-10-23T08:41:30;24.00;50.80
29539;DHT22;16482;51.046;4.498;2022-10-23T08:46:32;23.90;50.80
29539;DHT22;16482;51.046;4.498;2022-10-23T08:51:43;24.00;50.90
29539;DHT22;16482;51.046;4.498;2022-10-23T08:56:38;24.00;50.90
29539;DHT22;16482;51.046;4.498;2022-10-23T08:59:10;24.00;50.90
29539;DHT22;16482;51.046;4.498;2022-10-23T09:01:46;24.00;50.90
29539;DHT22;16482;51.046;4.498;2022-10-23T09:04:14;24.00;50.90
29539;DHT22;16482;51.046;4.498;2022-10-23T09:09:38;24.00;50.90
29539;DHT22;16482;51.046;4.498;2022-10-23T09:12:35;24.00;51.00
29539;DHT22;16482;51.046;4.498;2022-10-23T09:15:03;24.00;51.00
29539;DHT22;16482;51.046;4.498;2022-10-23T09:17:36;24.00;51.10
29539;DHT22;16482;51.046;4.498;2022-10-23T09:22:57;24.00;51.10
29539;DHT22;16482;51.046;4.498;2022-10-23T09:25:34;24.00;51.10
29539;DHT22;16482;51.046;4.498;2022-10-23T09:28:02;24.00;51.10
29539;DHT22;16482;51.046;4.498;2022-10-23T09:30:34;23.90;51.10
29539;DHT22;16482;51.046;4.498;2022-10-23T09:33:11;24.00;51.30
29539;DHT22;16482;51.046;4.498;2022-10-23T09:35:49;23.90;51.30
29539;DHT22;16482;51.046;4.498;2022-10-23T09:40:52;24.00;51.60
29539;DHT22;16482;51.046;4.498;2022-10-23T09:43:18;23.90;51.50
29539;DHT22;16482;51.046;4.498;2022-10-23T09:46:02;23.90;51.50
29539;DHT22;16482;51.046;4.498;2022-10-23T09:48:29;24.00;51.60
29539;DHT22;16482;51.046;4.498;2022-10-23T09:50:58;24.00;51.70
29539;DHT22;16482;51.046;4.498;2022-10-23T09:56:04;24.00;51.60
29539;DHT22;16482;51.046;4.498;2022-10-23T09:58:38;24.10;51.70
29539;DHT22;16482;51.046;4.498;2022-10-23T10:01:28;24.10;51.70
29539;DHT22;16482;51.046;4.498;2022-10-23T10:03:54;24.10;51.70
29539;DHT22;16482;51.046;4.498;2022-10-23T10:06:26;24.10;51.70
29539;DHT22;16482;51.046;4.498;2022-10-23T10:09:14;24.10;51.70
29539;DHT22;16482;51.046;4.498;2022-10-23T10:11:47;24.10;51.80
29539;DHT22;16482;51.046;4.498;2022-10-23T10:17:14;24.20;51.80
29539;DHT22;16482;51.046;4.498;2022-10-23T10:22:49;24.20;51.80
29539;DHT22;16482;51.046;4.498;2022-10-23T10:25:22;24.30;51.80
29539;DHT22;16482;51.046;4.498;2022-10-23T10:33:31;24.30;51.80
29539;DHT22;16482;51.046;4.498;2022-10-23T10:36:17;24.30;51.80
29539;DHT22;16482;51.046;4.498;2022-10-23T10:38:49;24.30;52.10
29539;DHT22;16482;51.046;4.498;2022-10-23T10:41:43;24.30;52.10
29539;DHT22;16482;51.046;4.498;2022-10-23T10:44:33;24.30;52.20
29539;DHT22;16482;51.046;4.498;2022-10-23T10:47:21;24.30;52.20
29539;DHT22;16482;51.046;4.498;2022-10-23T10:50:22;24.20;52.20
29539;DHT22;16482;51.046;4.498;2022-10-23T10:58:02;24.20;52.20
29539;DHT22;16482;51.046;4.498;2022-10-23T11:00:32;24.20;52.20
29539;DHT22;16482;51.046;4.498;2022-10-23T11:03:03;24.20;52.20
29539;DHT22;16482;51.046;4.498;2022-10-23T11:05:37;24.10;52.20
29539;DHT22;16482;51.046;4.498;2022-10-23T11:10:53;24.10;52.20
29539;DHT22;16482;51.046;4.498;2022-10-23T11:13:26;24.10;52.20
29539;DHT22;16482;51.046;4.498;2022-10-23T11:16:00;24.10;52.20
29539;DHT22;16482;51.046;4.498;2022-10-23T11:18:29;24.10;52.20
29539;DHT22;16482;51.046;4.498;2022-10-23T11:21:25;24.10;52.20
29539;DHT22;16482;51.046;4.498;2022-10-23T11:24:22;24.10;52.20
29539;DHT22;16482;51.046;4.498;2022-10-23T11:29:28;24.10;52.20
29539;DHT22;16482;51.046;4.498;2022-10-23T11:37:18;24.00;52.40
29539;DHT22;16482;51.046;4.498;2022-10-23T11:45:25;24.00;52.60
29539;DHT22;16482;51.046;4.498;2022-10-23T11:48:18;24.00;52.70
29539;DHT22;16482;51.046;4.498;2022-10-23T11:56:02;24.00;52.80
29539;DHT22;16482;51.046;4.498;2022-10-23T12:06:57;24.10;52.80
29539;DHT22;16482;51.046;4.498;2022-10-23T12:09:35;24.10;52.90
29539;DHT22;16482;51.046;4.498;2022-10-23T12:12:15;24.10;52.70
29539;DHT22;16482;51.046;4.498;2022-10-23T12:14:49;24.10;52.90
29539;DHT22;16482;51.046;4.498;2022-10-23T12:22:14;24.10;52.90
29539;DHT22;16482;51.046;4.498;2022-10-23T12:24:48;24.20;53.00
29539;DHT22;16482;51.046;4.498;2022-10-23T12:30:21;24.20;53.00
29539;DHT22;16482;51.046;4.498;2022-10-23T12:33:34;24.10;53.00
29539;DHT22;16482;51.046;4.498;2022-10-23T12:38:20;24.20;53.00
29539;DHT22;16482;51.046;4.498;2022-10-23T12:40:54;24.10;53.10
29539;DHT22;16482;51.046;4.498;2022-10-23T12:43:32;24.10;53.10
29539;DHT22;16482;51.046;4.498;2022-10-23T12:46:24;24.10;53.10
29539;DHT22;16482;51.046;4.498;2022-10-23T12:48:53;24.10;53.10
29539;DHT22;16482;51.046;4.498;2022-10-23T12:51:30;24.10;53.20
29539;DHT22;16482;51.046;4.498;2022-10-23T12:53:56;24.10;53.20
29539;DHT22;16482;51.046;4.498;2022-10-23T12:56:24;24.20;53.30
29539;DHT22;16482;51.046;4.498;2022-10-23T12:58:55;24.10;53.20
29539;DHT22;16482;51.046;4.498;2022-10-23T13:01:28;24.20;53.20
29539;DHT22;16482;51.046;4.498;2022-10-23T13:04:12;24.10;53.10
29539;DHT22;16482;51.046;4.498;2022-10-23T13:06:41;24.20;53.20
29539;DHT22;16482;51.046;4.498;2022-10-23T13:09:26;24.20;53.10
29539;DHT22;16482;51.046;4.498;2022-10-23T13:11:53;24.20;53.20
29539;DHT22;16482;51.046;4.498;2022-10-23T13:14:36;24.20;53.20
29539;DHT22;16482;51.046;4.498;2022-10-23T13:17:07;24.20;53.30
29539;DHT22;16482;51.046;4.498;2022-10-23T13:19:34;24.10;53.20
29539;DHT22;16482;51.046;4.498;2022-10-23T13:22:02;24.10;53.20
29539;DHT22;16482;51.046;4.498;2022-10-23T13:24:29;24.20;53.30
29539;DHT22;16482;51.046;4.498;2022-10-23T13:26:56;24.20;53.20
29539;DHT22;16482;51.046;4.498;2022-10-23T13:29:30;24.20;53.20
29539;DHT22;16482;51.046;4.498;2022-10-23T13:31:56;24.20;53.20
29539;DHT22;16482;51.046;4.498;2022-10-23T13:34:25;24.20;53.30
29539;DHT22;16482;51.046;4.498;2022-10-23T13:37:18;24.20;53.20
29539;DHT22;16482;51.046;4.498;2022-10-23T13:39:45;24.20;53.30
29539;DHT22;16482;51.046;4.498;2022-10-23T13:42:14;24.20;53.30
29539;DHT22;16482;51.046;4.498;2022-10-23T13:44:41;24.20;53.40
29539;DHT22;16482;51.046;4.498;2022-10-23T13:47:11;24.20;53.40
29539;DHT22;16482;51.046;4.498;2022-10-23T13:49:37;24.20;53.40
29539;DHT22;16482;51.046;4.498;2022-10-23T13:52:03;24.20;53.40
29539;DHT22;16482;51.046;4.498;2022-10-23T13:54:29;24.20;53.50
29539;DHT22;16482;51.046;4.498;2022-10-23T13:56:56;24.20;53.60
29539;DHT22;16482;51.046;4.498;2022-10-23T13:59:22;24.10;53.60
29539;DHT22;16482;51.046;4.498;2022-10-23T14:01:49;24.10;53.60
29539;DHT22;16482;51.046;4.498;2022-10-23T14:04:16;24.10;53.70
29539;DHT22;16482;51.046;4.498;2022-10-23T14:06:42;24.10;53.70
29539;DHT22;16482;51.046;4.498;2022-10-23T14:09:16;24.10;53.70
29539;DHT22;16482;51.046;4.498;2022-10-23T14:11:43;24.10;53.70
29539;DHT22;16482;51.046;4.498;2022-10-23T14:14:09;24.10;53.60
29539;DHT22;16482;51.046;4.498;2022-10-23T14:16:35;24.10;53.70
29539;DHT22;16482;51.046;4.498;2022-10-23T14:19:01;24.10;53.70
29539;DHT22;16482;51.046;4.498;2022-10-23T14:21:27;24.00;53.60
29539;DHT22;16482;51.046;4.498;2022-10-23T14:23:53;24.00;53.70
29539;DHT22;16482;51.046;4.498;2022-10-23T14:26:22;24.10;53.70
29539;DHT22;16482;51.046;4.498;2022-10-23T14:28:51;24.10;53.70
29539;DHT22;16482;51.046;4.498;2022-10-23T14:31:18;24.00;53.70
29539;DHT22;16482;51.046;4.498;2022-10-23T14:33:45;24.00;53.70
29539;DHT22;16482;51.046;4.498;2022-10-23T14:36:11;24.00;53.80
29539;DHT22;16482;51.046;4.498;2022-10-23T14:38:37;24.00;53.80
29539;DHT22;16482;51.046;4.498;2022-10-23T14:41:09;24.00;53.80
29539;DHT22;16482;51.046;4.498;2022-10-23T14:43:36;24.00;53.90
29539;DHT22;16482;51.046;4.498;2022-10-23T14:46:13;24.00;53.80
29539;DHT22;16482;51.046;4.498;2022-10-23T14:48:40;24.00;53.80
29539;DHT22;16482;51.046;4.498;2022-10-23T14:51:18;24.00;53.90
29539;DHT22;16482;51.046;4.498;2022-10-23T14:53:44;24.00;53.90
29539;DHT22;16482;51.046;4.498;2022-10-23T14:56:10;23.90;54.00
29539;DHT22;16482;51.046;4.498;2022-10-23T14:58:36;24.00;54.00
29539;DHT22;16482;51.046;4.498;2022-10-23T15:01:01;24.00;54.10
29539;DHT22;16482;51.046;4.498;2022-10-23T15:03:28;24.00;54.10
29539;DHT22;16482;51.046;4.498;2022-10-23T15:05:54;24.00;54.10
29539;DHT22;16482;51.046;4.498;2022-10-23T15:08:21;24.00;54.10
29539;DHT22;16482;51.046;4.498;2022-10-23T15:10:48;24.00;54.10
29539;DHT22;16482;51.046;4.498;2022-10-23T15:13:13;24.00;54.10
29539;DHT22;16482;51.046;4.498;2022-10-23T15:15:39;24.00;54.10
29539;DHT22;16482;51.046;4.498;2022-10-23T15:18:08;23.90;54.10
29539;DHT22;16482;51.046;4.498;2022-10-23T15:20:34;23.90;54.20
29539;DHT22;16482;51.046;4.498;2022-10-23T15:22:59;23.90;54.20
29539;DHT22;16482;51.046;4.498;2022-10-23T15:25:25;23.90;54.20
29539;DHT22;16482;51.046;4.498;2022-10-23T15:27:51;23.90;54.20
29539;DHT22;16482;51.046;4.498;2022-10-23T15:30:17;23.90;54.20
29539;DHT22;16482;51.046;4.498;2022-10-23T15:32:43;23.90;54.20
29539;DHT22;16482;51.046;4.498;2022-10-23T15:35:09;23.90;54.20
29539;DHT22;16482;51.046;4.498;2022-10-23T15:37:34;23.90;54.90
29539;DHT22;16482;51.046;4.498;2022-10-23T15:40:00;23.90;54.30
29539;DHT22;16482;51.046;4.498;2022-10-23T15:42:26;23.90;54.30
29539;DHT22;16482;51.046;4.498;2022-10-23T15:44:52;23.80;54.30
29539;DHT22;16482;51.046;4.498;2022-10-23T15:47:18;23.80;54.30
29539;DHT22;16482;51.046;4.498;2022-10-23T15:49:43;23.90;54.40
29539;DHT22;16482;51.046;4.498;2022-10-23T15:52:10;23.80;54.30
29539;DHT22;16482;51.046;4.498;2022-10-23T15:54:36;23.80;54.30
29539;DHT22;16482;51.046;4.498;2022-10-23T15:57:02;23.80;54.30
29539;DHT22;16482;51.046;4.498;2022-10-23T15:59:29;23.80;54.30
29539;DHT22;16482;51.046;4.498;2022-10-23T16:01:55;23.80;54.30
29539;DHT22;16482;51.046;4.498;2022-10-23T16:04:21;23.90;54.40
29539;DHT22;16482;51.046;4.498;2022-10-23T16:06:47;23.90;54.40
29539;DHT22;16482;51.046;4.498;2022-10-23T16:09:14;23.80;54.40
29539;DHT22;16482;51.046;4.498;2022-10-23T16:11:42;23.80;54.30
29539;DHT22;16482;51.046;4.498;2022-10-23T16:14:12;23.80;54.40
29539;DHT22;16482;51.046;4.498;2022-10-23T16:16:38;23.80;54.40
29539;DHT22;16482;51.046;4.498;2022-10-23T16:19:04;23.80;54.50
29539;DHT22;16482;51.046;4.498;2022-10-23T16:21:33;23.80;54.50
29539;DHT22;16482;51.046;4.498;2022-10-23T16:24:01;23.80;54.50
29539;DHT22;16482;51.046;4.498;2022-10-23T16:26:28;23.80;54.50
29539;DHT22;16482;51.046;4.498;2022-10-23T16:28:56;23.80;54.60
29539;DHT22;16482;51.046;4.498;2022-10-23T16:31:23;23.80;54.60
29539;DHT22;16482;51.046;4.498;2022-10-23T16:33:50;23.80;54.50
29539;DHT22;16482;51.046;4.498;2022-10-23T16:36:16;23.80;54.60
29539;DHT22;16482;51.046;4.498;2022-10-23T16:38:43;23.80;54.60
29539;DHT22;16482;51.046;4.498;2022-10-23T16:41:09;23.80;54.60
29539;DHT22;16482;51.046;4.498;2022-10-23T16:43:35;23.80;54.60
29539;DHT22;16482;51.046;4.498;2022-10-23T16:46:06;23.80;54.60
29539;DHT22;16482;51.046;4.498;2022-10-23T16:48:34;23.80;55.20
29539;DHT22;16482;51.046;4.498;2022-10-23T16:51:07;23.80;54.50
29539;DHT22;16482;51.046;4.498;2022-10-23T16:53:33;23.80;54.50
29539;DHT22;16482;51.046;4.498;2022-10-23T16:56:01;23.80;54.60
29539;DHT22;16482;51.046;4.498;2022-10-23T16:58:27;23.80;54.70
29539;DHT22;16482;51.046;4.498;2022-10-23T17:01:08;23.80;54.80
29539;DHT22;16482;51.046;4.498;2022-10-23T17:03:39;23.80;54.70
29539;DHT22;16482;51.046;4.498;2022-10-23T17:06:07;23.80;54.80
29539;DHT22;16482;51.046;4.498;2022-10-23T17:08:33;23.80;54.70
29539;DHT22;16482;51.046;4.498;2022-10-23T17:11:10;23.80;54.80
29539;DHT22;16482;51.046;4.498;2022-10-23T17:13:38;23.80;54.80
29539;DHT22;16482;51.046;4.498;2022-10-23T17:16:10;23.90;54.80
29539;DHT22;16482;51.046;4.498;2022-10-23T17:18:38;23.90;54.90
29539;DHT22;16482;51.046;4.498;2022-10-23T17:21:04;23.90;55.10
29539;DHT22;16482;51.046;4.498;2022-10-23T17:23:30;23.90;55.20
29539;DHT22;16482;51.046;4.498;2022-10-23T17:25:56;23.80;55.10
29539;DHT22;16482;51.046;4.498;2022-10-23T17:28:23;23.80;55.10
29539;DHT22;16482;51.046;4.498;2022-10-23T17:30:49;23.80;55.10
29539;DHT22;16482;51.046;4.498;2022-10-23T17:33:15;23.80;55.10
29539;DHT22;16482;51.046;4.498;2022-10-23T17:35:41;23.80;55.10
29539;DHT22;16482;51.046;4.498;2022-10-23T17:38:09;23.80;55.10
29539;DHT22;16482;51.046;4.498;2022-10-23T17:40:35;23.90;55.10
29539;DHT22;16482;51.046;4.498;2022-10-23T17:43:01;23.80;55.00